createdAt,value
2019-05-16T00:01:29.986Z,3.33
2019-05-16T00:03:57.951Z,3.10
2019-05-16T00:06:25.528Z,2.90
2019-05-16T00:08:53.107Z,2.70
2019-05-16T00:11:20.720Z,3.17
2019-05-16T00:13:48.846Z,2.80
2019-05-16T00:16:18.646Z,3.10
2019-05-16T00:18:47.922Z,3.30
2019-05-16T00:21:17.542Z,3.27
2019-05-16T00:23:44.821Z,3.07
2019-05-16T00:26:12.272Z,3.17
2019-05-16T00:28:39.729Z,3.30
2019-05-16T00:31:08.707Z,2.87
2019-05-16T00:33:38.035Z,4.13
2019-05-16T00:36:06.775Z,3.50
2019-05-16T00:38:34.906Z,3.37
2019-05-16T00:41:02.496Z,2.97
2019-05-16T00:43:29.896Z,3.30
2019-05-16T00:45:58.939Z,3.50
2019-05-16T00:48:28.761Z,3.10
2019-05-16T00:50:58.281Z,3.23
2019-05-16T00:53:25.435Z,3.20
2019-05-16T00:55:54.039Z,3.43
2019-05-16T00:58:22.579Z,3.20
2019-05-16T01:00:50.488Z,3.30
2019-05-16T01:03:20.234Z,3.40
2019-05-16T01:05:48.191Z,3.70
2019-05-16T01:08:18.315Z,3.30
2019-05-16T01:10:48.496Z,3.50
2019-05-16T01:13:15.125Z,3.30
2019-05-16T01:15:42.567Z,3.50
2019-05-16T01:18:10.014Z,3.63
2019-05-16T01:20:38.687Z,3.53
2019-05-16T01:23:08.715Z,3.70
2019-05-16T01:25:35.922Z,3.53
2019-05-16T01:28:03.605Z,3.50
2019-05-16T01:30:31.204Z,3.80
2019-05-16T01:32:58.764Z,3.80
2019-05-16T01:35:27.890Z,3.73
2019-05-16T01:37:55.500Z,3.60
2019-05-16T01:40:22.966Z,3.63
2019-05-16T01:42:50.386Z,3.90
2019-05-16T01:45:18.818Z,4.10
2019-05-16T01:47:48.244Z,4.07
2019-05-16T01:50:17.879Z,4.20
2019-05-16T01:52:45.356Z,4.10
2019-05-16T01:55:13.005Z,3.53
2019-05-16T01:57:40.564Z,4.10
2019-05-16T02:00:08.767Z,4.00
2019-05-16T02:02:38.282Z,4.57
2019-05-16T02:05:08.288Z,4.60
2019-05-16T02:07:35.795Z,6.33
2019-05-16T02:10:04.167Z,13.83
2019-05-16T02:12:31.589Z,12.10
2019-05-16T02:14:58.999Z,8.97
2019-05-16T02:17:28.684Z,5.53
2019-05-16T02:19:57.707Z,3.83
2019-05-16T02:22:25.055Z,3.80
2019-05-16T02:24:52.530Z,4.10
2019-05-16T02:27:20.100Z,5.00
2019-05-16T02:29:47.510Z,4.70
2019-05-16T02:32:15.313Z,4.70
2019-05-16T02:34:42.796Z,4.13
2019-05-16T02:37:23.798Z,4.30
2019-05-16T02:39:40.911Z,4.80
2019-05-16T02:42:11.706Z,3.93
2019-05-16T02:44:40.912Z,3.70
2019-05-16T02:47:07.155Z,3.70
2019-05-16T02:49:35.642Z,3.60
2019-05-16T02:52:03.422Z,3.60
2019-05-16T02:54:31.609Z,3.67
2019-05-16T02:57:01.451Z,3.70
2019-05-16T02:59:30.744Z,3.27
2019-05-16T03:02:00.623Z,3.50
2019-05-16T03:04:26.980Z,3.50
2019-05-16T03:06:55.585Z,3.60
2019-05-16T03:09:23.627Z,3.60
2019-05-16T03:11:51.186Z,3.40
2019-05-16T03:14:21.246Z,3.10
2019-05-16T03:16:51.175Z,3.20
2019-05-16T03:19:21.798Z,2.80
2019-05-16T03:21:51.137Z,2.90
2019-05-16T03:24:20.582Z,2.90
2019-05-16T03:26:51.262Z,3.30
2019-05-16T03:29:17.158Z,4.00
2019-05-16T03:31:45.581Z,3.70
2019-05-16T03:34:16.182Z,3.50
2019-05-16T03:36:44.115Z,3.10
2019-05-16T03:39:11.944Z,4.40
2019-05-16T03:41:41.445Z,4.47
2019-05-16T03:44:11.238Z,3.90
2019-05-16T03:46:41.062Z,3.60
2019-05-16T03:49:11.021Z,3.50
2019-05-16T03:51:36.636Z,3.10
2019-05-16T03:54:04.068Z,3.33
2019-05-16T03:56:31.530Z,3.20
2019-05-16T03:59:01.121Z,3.00
2019-05-16T04:01:31.113Z,2.70
2019-05-16T04:03:57.369Z,2.70
2019-05-16T04:06:24.789Z,2.50
2019-05-16T04:08:52.331Z,2.37
2019-05-16T04:11:23.354Z,2.20
2019-05-16T04:13:50.832Z,2.27
2019-05-16T04:16:20.909Z,2.40
2019-05-16T04:18:51.141Z,2.60
2019-05-16T04:21:17.688Z,2.30
2019-05-16T04:23:46.332Z,2.30
2019-05-16T04:26:13.816Z,2.50
2019-05-16T04:28:41.582Z,2.23
2019-05-16T04:31:10.943Z,2.40
2019-05-16T04:33:41.576Z,2.40
2019-05-16T04:36:10.685Z,2.43
2019-05-16T04:38:42.830Z,2.50
2019-05-16T04:41:06.447Z,2.70
2019-05-16T04:43:33.851Z,2.60
2019-05-16T04:46:01.722Z,2.63
2019-05-16T04:48:31.014Z,2.83
2019-05-16T04:51:01.048Z,2.60
2019-05-16T04:53:31.288Z,2.60
2019-05-16T04:55:57.040Z,2.80
2019-05-16T04:58:24.488Z,2.90
2019-05-16T05:00:52.471Z,2.87
2019-05-16T05:03:21.054Z,3.27
2019-05-16T05:05:51.374Z,2.63
2019-05-16T05:08:21.387Z,2.67
2019-05-16T05:10:47.302Z,2.80
2019-05-16T05:13:14.961Z,2.60
2019-05-16T05:15:43.052Z,2.90
2019-05-16T05:18:10.400Z,2.90
2019-05-16T05:20:40.839Z,3.10
2019-05-16T05:23:07.233Z,2.70
2019-05-16T05:25:34.923Z,2.60
2019-05-16T05:28:02.439Z,2.80
2019-05-16T05:30:30.393Z,2.30
2019-05-16T05:33:00.618Z,2.20
2019-05-16T05:35:27.452Z,2.20
2019-05-16T05:37:54.951Z,2.30
2019-05-16T05:40:22.505Z,2.23
2019-05-16T05:42:50.610Z,1.93
2019-05-16T05:45:20.132Z,2.30
2019-05-16T05:47:50.356Z,2.50
2019-05-16T05:50:17.257Z,2.07
2019-05-16T05:52:46.277Z,2.33
2019-05-16T05:55:13.951Z,2.20
2019-05-16T05:57:41.813Z,2.13
2019-05-16T06:00:10.168Z,2.20
2019-05-16T06:02:39.970Z,2.27
2019-05-16T06:05:07.698Z,2.63
2019-05-16T06:07:35.101Z,2.57
2019-05-16T06:10:03.228Z,2.63
2019-05-16T06:12:30.775Z,3.07
2019-05-16T06:15:06.013Z,3.50
2019-05-16T06:17:27.568Z,3.57
2019-05-16T06:19:55.042Z,3.50
2019-05-16T06:22:22.535Z,3.50
2019-05-16T06:24:50.414Z,3.13
2019-05-16T06:27:20.671Z,3.07
2019-05-16T06:29:49.593Z,2.60
2019-05-16T06:32:16.436Z,3.00
2019-05-16T06:34:43.856Z,2.97
2019-05-16T06:37:11.395Z,2.97
2019-05-16T06:39:42.781Z,2.90
2019-05-16T06:42:12.864Z,2.80
2019-05-16T06:44:40.344Z,2.83
2019-05-16T06:47:17.008Z,2.60
2019-05-16T06:49:37.170Z,2.50
2019-05-16T06:52:04.609Z,2.37
2019-05-16T06:54:32.187Z,2.50
2019-05-16T06:57:00.168Z,2.50
2019-05-16T06:59:29.634Z,2.30
2019-05-16T07:01:57.172Z,2.30
2019-05-16T07:04:24.594Z,2.13
2019-05-16T07:06:58.985Z,2.20
2019-05-16T07:09:21.396Z,2.47
2019-05-16T07:11:50.457Z,2.27
2019-05-16T07:14:22.523Z,2.30
2019-05-16T07:16:49.561Z,2.13
2019-05-16T07:19:16.706Z,2.10
2019-05-16T07:21:44.157Z,2.03
2019-05-16T07:24:11.640Z,1.90
2019-05-16T07:26:40.534Z,2.10
2019-05-16T07:29:10.777Z,2.30
2019-05-16T07:31:40.449Z,2.00
2019-05-16T07:34:09.881Z,1.90
2019-05-16T07:36:36.621Z,2.00
2019-05-16T07:39:05.454Z,2.10
2019-05-16T07:41:32.999Z,2.00
2019-05-16T07:44:01.060Z,2.30
2019-05-16T07:46:31.372Z,2.40
2019-05-16T07:49:00.951Z,1.97
2019-05-16T07:51:27.505Z,2.10
2019-05-16T07:53:54.976Z,1.93
2019-05-16T07:56:22.690Z,2.00
2019-05-16T07:58:50.787Z,1.90
2019-05-16T08:01:20.027Z,2.17
2019-05-16T08:03:50.632Z,2.30
2019-05-16T08:06:16.963Z,2.10
2019-05-16T08:08:44.564Z,2.20
2019-05-16T08:11:12.429Z,2.10
2019-05-16T08:13:40.254Z,2.17
2019-05-16T08:16:10.132Z,1.90
2019-05-16T08:18:37.029Z,1.87
2019-05-16T08:21:04.457Z,2.00
2019-05-16T08:23:31.939Z,1.83
2019-05-16T08:26:01.204Z,2.00
2019-05-16T08:28:30.809Z,2.20
2019-05-16T08:31:00.607Z,1.97
2019-05-16T08:33:27.120Z,2.00
2019-05-16T08:35:54.617Z,2.10
2019-05-16T08:38:22.107Z,2.07
2019-05-16T08:43:21.739Z,1.70
2019-05-16T08:45:48.003Z,2.03
2019-05-16T08:48:15.472Z,1.90
2019-05-16T08:50:08.653Z,1.80
2019-05-16T08:50:53.997Z,1.80
2019-05-16T08:53:13.812Z,1.63
2019-05-16T08:55:43.315Z,1.70
2019-05-16T08:58:13.557Z,1.67
2019-05-16T09:00:41.871Z,1.80
2019-05-16T09:03:12.019Z,1.40
2019-05-16T09:05:42.649Z,1.70
2019-05-16T09:08:08.128Z,1.60
2019-05-16T09:10:58.631Z,1.80
2019-05-16T09:13:07.136Z,1.70
2019-05-16T09:15:34.284Z,1.73
2019-05-16T09:18:02.329Z,1.83
2019-05-16T09:20:30.012Z,1.70
2019-05-16T09:22:57.937Z,1.60
2019-05-16T09:25:27.497Z,1.70
2019-05-16T09:27:56.936Z,1.90
2019-05-16T09:30:27.429Z,1.70
2019-05-16T09:32:54.793Z,1.80
2019-05-16T09:35:27.935Z,1.70
2019-05-16T09:37:54.348Z,1.77
2019-05-16T09:40:21.947Z,1.87
2019-05-16T09:42:49.538Z,1.80
2019-05-16T09:45:18.474Z,1.90
2019-05-16T09:47:48.527Z,1.90
2019-05-16T09:50:19.009Z,1.83
2019-05-16T09:52:47.237Z,1.77
2019-05-16T09:55:17.866Z,1.90
2019-05-16T09:57:46.954Z,1.60
2019-05-16T10:00:18.764Z,1.80
2019-05-16T10:02:47.550Z,1.70
2019-05-16T10:05:16.911Z,1.80
2019-05-16T10:07:46.962Z,1.90
2019-05-16T10:10:16.893Z,1.73
2019-05-16T10:12:44.416Z,1.80
2019-05-16T10:15:13.192Z,1.50
2019-05-16T10:17:40.819Z,1.73
2019-05-16T10:20:09.319Z,1.90
2019-05-16T10:22:37.369Z,1.80
2019-05-16T10:25:05.340Z,2.20
2019-05-16T10:27:33.038Z,2.00
2019-05-16T10:30:01.266Z,1.80
2019-05-16T10:32:29.291Z,1.70
2019-05-16T10:34:57.275Z,1.60
2019-05-16T10:37:26.906Z,1.77
2019-05-16T10:39:56.273Z,1.60
2019-05-16T10:42:28.455Z,1.70
2019-05-16T10:44:52.487Z,1.80
2019-05-16T10:47:20.078Z,1.70
2019-05-16T10:49:47.801Z,1.43
2019-05-16T10:52:16.611Z,1.50
2019-05-16T10:54:55.426Z,1.70
2019-05-16T10:57:14.943Z,1.90
2019-05-16T11:00:09.094Z,1.60
2019-05-16T11:02:11.875Z,1.70
2019-05-16T11:04:56.181Z,1.70
2019-05-16T11:07:08.643Z,1.50
2019-05-16T11:09:39.172Z,1.70
2019-05-16T11:12:05.665Z,1.50
2019-05-16T11:14:33.095Z,1.80
2019-05-16T11:17:00.617Z,1.47
2019-05-16T11:19:28.777Z,1.70
2019-05-16T11:21:57.327Z,1.70
2019-05-16T11:24:28.972Z,1.40
2019-05-16T11:26:56.663Z,1.60
2019-05-16T11:29:23.448Z,1.50
2019-05-16T11:31:50.980Z,1.70
2019-05-16T11:34:18.775Z,1.40
2019-05-16T11:36:47.747Z,1.77
2019-05-16T11:39:17.415Z,1.70
2019-05-16T11:41:47.354Z,1.60
2019-05-16T11:44:17.409Z,1.80
2019-05-16T11:46:44.551Z,1.57
2019-05-16T11:49:12.043Z,1.40
2019-05-16T11:51:39.993Z,1.40
2019-05-16T11:54:07.640Z,1.37
2019-05-16T11:56:37.024Z,1.60
2019-05-16T11:59:04.731Z,1.57
2019-05-16T12:01:32.187Z,1.60
2019-05-16T12:03:59.651Z,1.60
2019-05-16T12:06:27.192Z,1.70
2019-05-16T12:08:55.044Z,1.70
2019-05-16T12:11:22.528Z,1.77
2019-05-16T12:13:50.233Z,1.60
2019-05-16T12:16:18.736Z,1.57
2019-05-16T12:18:47.453Z,1.43
2019-05-16T12:21:17.259Z,1.60
2019-05-16T12:23:47.135Z,1.60
2019-05-16T12:26:17.280Z,1.47
2019-05-16T12:28:43.810Z,1.60
2019-05-16T12:31:11.701Z,1.60
2019-05-16T12:33:39.017Z,1.77
2019-05-16T12:36:07.461Z,1.80
2019-05-16T12:38:37.896Z,1.43
2019-05-16T12:41:06.999Z,1.70
2019-05-16T12:43:46.216Z,1.73
2019-05-16T12:46:03.417Z,1.50
2019-05-16T12:48:31.081Z,1.63
2019-05-16T12:50:59.120Z,1.50
2019-05-16T12:53:31.675Z,1.70
2019-05-16T12:55:56.772Z,1.70
2019-05-16T12:58:27.735Z,1.60
2019-05-16T13:00:57.351Z,1.50
2019-05-16T13:03:23.372Z,1.60
2019-05-16T13:05:50.887Z,1.60
2019-05-16T13:08:18.643Z,1.70
2019-05-16T13:10:47.002Z,1.73
2019-05-16T13:13:17.427Z,1.53
2019-05-16T13:15:47.265Z,1.40
2019-05-16T13:18:14.015Z,1.50
2019-05-16T13:20:41.541Z,1.67
2019-05-16T13:23:14.367Z,1.60
2019-05-16T13:25:38.664Z,1.60
2019-05-16T13:28:08.143Z,1.63
2019-05-16T13:30:37.789Z,1.50
2019-05-16T13:33:06.999Z,1.33
2019-05-16T13:35:36.727Z,1.47
2019-05-16T13:38:03.366Z,1.60
2019-05-16T13:40:31.015Z,1.60
2019-05-16T13:42:58.665Z,1.50
2019-05-16T13:45:27.230Z,1.70
2019-05-16T13:47:57.300Z,1.40
2019-05-16T13:50:27.097Z,1.77
2019-05-16T13:52:54.073Z,1.40
2019-05-16T13:55:21.716Z,1.43
2019-05-16T13:57:49.227Z,1.50
2019-05-16T14:00:18.890Z,1.40
2019-05-16T14:02:46.363Z,1.80
2019-05-16T14:05:14.369Z,1.50
2019-05-16T14:07:41.780Z,1.47
2019-05-16T14:10:12.515Z,1.60
2019-05-16T14:12:40.484Z,1.60
2019-05-16T14:15:08.789Z,1.47
2019-05-16T14:17:37.214Z,1.60
2019-05-16T14:20:13.819Z,1.70
2019-05-16T14:22:34.890Z,1.50
2019-05-16T14:25:02.578Z,1.40
2019-05-16T14:27:30.035Z,1.50
2019-05-16T14:29:57.914Z,1.50
2019-05-16T14:32:25.634Z,1.60
2019-05-16T14:34:53.361Z,1.50
2019-05-16T14:37:20.863Z,1.50
2019-05-16T14:39:50.870Z,1.60
2019-05-16T14:42:18.412Z,1.40
2019-05-16T14:45:03.639Z,1.50
2019-05-16T14:47:17.776Z,1.40
2019-05-16T14:49:48.749Z,1.50
2019-05-16T14:52:15.972Z,1.40
2019-05-16T14:54:43.577Z,1.37
2019-05-16T14:57:11.082Z,1.47
2019-05-16T14:59:38.642Z,1.50
2019-05-16T15:02:07.082Z,1.60
2019-05-16T15:04:37.567Z,1.57
2019-05-16T15:07:19.442Z,1.60
2019-05-16T15:09:47.136Z,1.50
2019-05-16T15:12:17.154Z,1.50
2019-05-16T15:14:44.131Z,1.50
2019-05-16T15:17:12.313Z,1.50
2019-05-16T15:19:39.899Z,1.50
2019-05-16T15:22:08.135Z,1.47
2019-05-16T15:24:37.101Z,1.50
2019-05-16T15:27:04.613Z,1.57
2019-05-16T15:29:32.080Z,1.60
2019-05-16T15:31:59.627Z,1.50
2019-05-16T15:34:29.808Z,1.67
2019-05-16T15:36:56.493Z,1.37
2019-05-16T15:39:27.701Z,1.30
2019-05-16T15:41:56.600Z,1.70
2019-05-16T15:44:24.115Z,1.33
2019-05-16T15:46:52.433Z,1.23
2019-05-16T15:49:19.895Z,1.50
2019-05-16T15:51:47.467Z,1.53
2019-05-16T15:54:19.813Z,1.53
2019-05-16T15:56:49.775Z,1.50
2019-05-16T15:59:17.990Z,1.30
2019-05-16T16:01:47.488Z,1.40
2019-05-16T16:04:17.404Z,1.53
2019-05-16T16:06:47.177Z,1.40
2019-05-16T16:09:13.917Z,1.33
2019-05-16T16:11:43.138Z,1.50
2019-05-16T16:14:10.552Z,1.20
2019-05-16T16:16:38.684Z,1.30
2019-05-16T16:19:06.618Z,1.40
2019-05-16T16:21:34.064Z,1.37
2019-05-16T16:24:04.918Z,1.23
2019-05-16T16:26:30.895Z,1.60
2019-05-16T16:28:59.914Z,1.50
2019-05-16T16:31:27.528Z,1.60
2019-05-16T16:33:57.126Z,1.47
2019-05-16T16:36:24.216Z,1.70
2019-05-16T16:38:51.755Z,1.40
2019-05-16T16:41:20.309Z,1.40
2019-05-16T16:43:47.910Z,1.60
2019-05-16T16:46:16.786Z,1.33
2019-05-16T16:48:44.760Z,1.40
2019-05-16T16:51:12.258Z,1.50
2019-05-16T16:53:39.592Z,1.60
2019-05-16T16:56:07.650Z,1.50
2019-05-16T16:58:37.208Z,1.20
2019-05-16T17:01:06.967Z,1.40
2019-05-16T17:03:36.280Z,1.40
2019-05-16T17:06:03.185Z,1.50
2019-05-16T17:08:31.326Z,1.43
2019-05-16T17:10:59.055Z,1.40
2019-05-16T17:13:27.554Z,1.70
2019-05-16T17:15:56.905Z,1.50
2019-05-16T17:18:24.526Z,1.40
2019-05-16T17:20:51.980Z,1.50
2019-05-16T17:23:19.766Z,1.50
2019-05-16T17:25:47.351Z,1.43
2019-05-16T17:28:17.178Z,1.40
2019-05-16T17:30:46.882Z,1.60
2019-05-16T17:33:28.283Z,1.50
2019-05-16T17:35:54.612Z,1.63
2019-05-16T17:38:22.811Z,1.70
2019-05-16T17:40:51.077Z,1.63
2019-05-16T17:43:18.483Z,1.57
2019-05-16T17:45:47.064Z,1.60
2019-05-16T17:48:17.506Z,1.50
2019-05-16T17:50:46.742Z,1.40
2019-05-16T17:53:17.083Z,1.50
2019-05-16T17:55:47.213Z,1.50
2019-05-16T17:58:17.669Z,1.40
2019-05-16T18:00:47.265Z,1.60
2019-05-16T18:03:17.314Z,1.30
2019-05-16T18:05:47.242Z,1.30
2019-05-16T18:08:14.658Z,1.50
2019-05-16T18:10:42.201Z,1.40
2019-05-16T18:13:12.932Z,1.50
2019-05-16T18:15:40.506Z,1.50
2019-05-16T18:18:08.330Z,1.50
2019-05-16T18:20:37.316Z,1.37
2019-05-16T18:23:06.967Z,1.50
2019-05-16T18:25:36.521Z,1.50
2019-05-16T18:28:07.760Z,1.80
2019-05-16T18:30:36.993Z,1.60
2019-05-16T18:33:07.217Z,1.47
2019-05-16T18:35:36.712Z,1.50
2019-05-16T18:38:07.324Z,1.60
2019-05-16T18:40:36.695Z,1.50
2019-05-16T18:43:07.883Z,1.60
2019-05-16T18:45:36.566Z,1.60
2019-05-16T18:48:07.376Z,1.80
2019-05-16T18:50:34.416Z,1.70
2019-05-16T18:53:01.923Z,1.70
2019-05-16T18:55:29.456Z,2.03
2019-05-16T18:57:57.546Z,1.83
2019-05-16T19:00:26.786Z,2.10
2019-05-16T19:02:56.406Z,1.87
2019-05-16T19:05:26.484Z,2.00
2019-05-16T19:08:16.851Z,1.87
2019-05-16T19:10:47.147Z,2.00
2019-05-16T19:13:16.707Z,1.70
2019-05-16T19:15:43.411Z,1.60
2019-05-16T19:18:11.022Z,1.70
2019-05-16T19:20:38.433Z,2.17
2019-05-16T19:23:07.638Z,1.60
2019-05-16T19:25:35.625Z,2.10
2019-05-16T19:28:03.107Z,2.00
2019-05-16T19:30:30.494Z,1.70
2019-05-16T19:32:58.926Z,2.10
2019-05-16T19:35:27.437Z,1.90
2019-05-16T19:37:57.008Z,2.20
2019-05-16T19:40:25.686Z,2.20
2019-05-16T19:42:53.205Z,2.00
2019-05-16T19:45:20.938Z,2.00
2019-05-16T19:47:48.376Z,2.10
2019-05-16T19:50:17.224Z,2.13
2019-05-16T19:52:47.002Z,2.40
2019-05-16T19:55:15.937Z,2.33
2019-05-16T19:57:46.512Z,2.30
2019-05-16T20:00:14.046Z,2.30
2019-05-16T20:02:41.505Z,2.30
2019-05-16T20:05:10.586Z,2.13
2019-05-16T20:07:38.589Z,2.07
2019-05-16T20:10:09.633Z,2.40
2019-05-16T20:12:37.022Z,2.00
2019-05-16T20:15:08.979Z,1.87
2019-05-16T20:17:36.454Z,2.37
2019-05-16T20:20:04.703Z,1.90
2019-05-16T20:22:32.367Z,1.90
2019-05-16T20:25:00.513Z,1.90
2019-05-16T20:27:29.436Z,2.10
2019-05-16T20:29:59.422Z,2.00
2019-05-16T20:32:27.702Z,1.67
2019-05-16T20:34:56.506Z,1.90
2019-05-16T20:37:26.459Z,1.87
2019-05-16T20:39:53.233Z,2.03
2019-05-16T20:42:20.942Z,1.80
2019-05-16T20:44:49.768Z,2.10
2019-05-16T20:47:17.345Z,2.00
2019-05-16T20:49:50.251Z,1.90
2019-05-16T20:52:14.389Z,2.27
2019-05-16T20:54:41.908Z,2.00
2019-05-16T20:57:09.352Z,2.10
2019-05-16T20:59:36.674Z,2.10
2019-05-16T21:02:06.867Z,1.87
2019-05-16T21:04:34.622Z,2.10
2019-05-16T21:07:08.185Z,2.37
2019-05-16T21:09:31.502Z,2.07
2019-05-16T21:11:59.325Z,2.07
2019-05-16T21:14:27.316Z,2.10
2019-05-16T21:16:57.726Z,2.40
2019-05-16T21:19:24.704Z,2.30
2019-05-16T21:21:52.190Z,2.30
2019-05-16T21:24:22.188Z,2.30
2019-05-16T21:26:50.076Z,2.53
2019-05-16T21:29:19.560Z,2.70
2019-05-16T21:31:47.788Z,3.17
2019-05-16T21:34:19.180Z,4.20
2019-05-16T21:36:46.951Z,3.57
2019-05-16T21:39:17.474Z,3.50
2019-05-16T21:41:47.125Z,3.40
2019-05-16T21:44:16.934Z,3.73
2019-05-16T21:46:46.971Z,3.30
2019-05-16T21:49:16.498Z,3.63
2019-05-16T21:51:46.537Z,4.03
2019-05-16T21:54:15.682Z,3.70
2019-05-16T21:56:46.805Z,2.50
2019-05-16T21:59:14.444Z,2.40
2019-05-16T22:01:42.826Z,2.23
2019-05-16T22:04:10.320Z,2.57
2019-05-16T22:06:38.322Z,2.50
2019-05-16T22:09:07.245Z,2.67
2019-05-16T22:11:36.948Z,2.30
2019-05-16T22:14:06.332Z,2.60
2019-05-16T22:16:33.447Z,2.70
2019-05-16T22:19:00.921Z,2.63
2019-05-16T22:21:28.375Z,2.50
2019-05-16T22:23:57.162Z,2.60
2019-05-16T22:26:26.913Z,2.60
2019-05-16T22:28:53.739Z,2.70
2019-05-16T22:31:22.068Z,2.70
2019-05-16T22:33:49.615Z,2.60
2019-05-16T22:36:17.439Z,2.47
2019-05-16T22:38:45.534Z,2.80
2019-05-16T22:41:13.001Z,3.10
2019-05-16T22:43:40.818Z,3.13
2019-05-16T22:46:10.015Z,2.80
2019-05-16T22:48:37.842Z,4.50
2019-05-16T22:51:07.212Z,4.17
2019-05-16T22:53:36.850Z,4.93
2019-05-16T22:56:04.030Z,5.57
2019-05-16T22:58:31.469Z,9.33
2019-05-16T23:00:59.116Z,4.23
2019-05-16T23:03:26.777Z,3.73
2019-05-16T23:05:56.422Z,4.27
2019-05-16T23:08:23.788Z,3.23
2019-05-16T23:10:51.178Z,3.20
2019-05-16T23:13:18.692Z,3.37
2019-05-16T23:15:46.282Z,3.00
2019-05-16T23:18:17.257Z,3.00
2019-05-16T23:20:47.352Z,3.00
2019-05-16T23:23:17.233Z,6.50
2019-05-16T23:25:46.090Z,4.93
2019-05-16T23:28:13.456Z,3.70
2019-05-16T23:30:40.958Z,3.50
2019-05-16T23:33:08.814Z,4.90
2019-05-16T23:35:37.705Z,3.00
2019-05-16T23:38:18.978Z,3.60
2019-05-16T23:40:37.380Z,3.10
2019-05-16T23:43:07.351Z,3.03
2019-05-16T23:45:34.444Z,2.90
2019-05-16T23:48:02.508Z,2.90
2019-05-16T23:50:30.696Z,2.90
2019-05-16T23:52:58.897Z,3.10
2019-05-16T23:55:28.717Z,2.97
2019-05-16T23:57:57.095Z,3.20
